createdAt,value
2022-09-30T00:01:05.371Z,7.03
2022-09-30T00:03:31.779Z,7.05
2022-09-30T00:06:08.477Z,7.07
2022-09-30T00:08:37.049Z,7.08
2022-09-30T00:11:18.979Z,7.08
2022-09-30T00:13:48.142Z,7.07
2022-09-30T00:16:15.932Z,7.07
2022-09-30T00:18:43.804Z,7.06
2022-09-30T00:21:11.891Z,7.06
2022-09-30T00:23:39.119Z,7.07
2022-09-30T00:26:15.277Z,7.08
2022-09-30T00:28:43.314Z,7.09
2022-09-30T00:31:14.007Z,7.13
2022-09-30T00:33:41.046Z,7.16
2022-09-30T00:36:07.592Z,7.18
2022-09-30T00:38:34.126Z,7.20
2022-09-30T00:41:01.740Z,7.20
2022-09-30T00:43:46.608Z,7.20
2022-09-30T00:46:42.459Z,7.21
2022-09-30T00:49:22.082Z,7.22
2022-09-30T00:51:54.086Z,7.20
2022-09-30T00:54:31.885Z,7.18
2022-09-30T00:57:03.951Z,7.15
2022-09-30T00:59:51.599Z,7.11
2022-09-30T01:02:18.156Z,7.09
2022-09-30T01:04:45.872Z,7.07
2022-09-30T01:07:13.782Z,7.06
2022-09-30T01:09:42.615Z,7.05
2022-09-30T01:14:55.880Z,7.08
2022-09-30T01:17:47.547Z,7.03
2022-09-30T01:20:27.199Z,7.03
2022-09-30T01:22:59.560Z,7.05
2022-09-30T01:26:14.141Z,7.05
2022-09-30T01:29:02.295Z,7.03
2022-09-30T01:31:56.716Z,7.05
2022-09-30T01:34:43.076Z,7.05
2022-09-30T01:37:18.413Z,7.04
2022-09-30T01:40:12.059Z,7.04
2022-09-30T01:43:11.772Z,7.03
2022-09-30T01:45:49.883Z,7.00
2022-09-30T01:48:43.085Z,7.01
2022-09-30T01:51:32.388Z,6.95
2022-09-30T01:54:27.636Z,6.96
2022-09-30T01:57:26.883Z,6.96
2022-09-30T02:00:10.127Z,6.96
2022-09-30T02:02:49.653Z,6.98
2022-09-30T02:05:24.786Z,7.03
2022-09-30T02:08:03.858Z,7.02
2022-09-30T02:10:38.027Z,7.05
2022-09-30T02:13:15.347Z,7.05
2022-09-30T02:15:49.325Z,7.09
2022-09-30T02:18:21.484Z,7.11
2022-09-30T02:20:55.540Z,7.13
2022-09-30T02:23:32.545Z,7.14
2022-09-30T02:26:06.991Z,7.15
2022-09-30T02:28:36.600Z,7.15
2022-09-30T02:31:05.400Z,7.18
2022-09-30T02:33:49.689Z,7.20
2022-09-30T02:36:29.160Z,7.24
2022-09-30T02:39:02.689Z,7.28
2022-09-30T02:41:35.754Z,7.30
2022-09-30T02:44:02.878Z,7.29
2022-09-30T02:47:10.218Z,7.31
2022-09-30T02:49:45.755Z,7.30
2022-09-30T02:52:22.214Z,7.31
2022-09-30T02:55:00.223Z,7.30
2022-09-30T02:57:42.281Z,7.32
2022-09-30T03:00:12.907Z,7.32
2022-09-30T03:02:41.092Z,7.37
2022-09-30T03:05:08.896Z,7.38
2022-09-30T03:07:36.561Z,7.41
2022-09-30T03:10:13.258Z,7.44
2022-09-30T03:13:07.726Z,7.45
2022-09-30T03:16:13.901Z,7.42
2022-09-30T03:19:11.138Z,7.38
2022-09-30T03:21:56.514Z,7.37
2022-09-30T03:25:10.881Z,7.37
2022-09-30T03:28:19.229Z,7.38
2022-09-30T03:30:50.465Z,7.38
2022-09-30T03:33:33.472Z,7.38
2022-09-30T03:36:06.579Z,7.37
2022-09-30T03:38:39.702Z,7.36
2022-09-30T03:41:29.037Z,7.31
2022-09-30T03:44:07.130Z,7.33
2022-09-30T03:46:44.993Z,7.32
2022-09-30T03:49:15.986Z,7.35
2022-09-30T03:51:42.614Z,7.35
2022-09-30T03:54:11.222Z,7.39
2022-09-30T03:56:42.437Z,7.38
2022-09-30T03:59:28.506Z,7.39
2022-09-30T04:01:56.990Z,7.41
2022-09-30T04:04:23.685Z,7.38
2022-09-30T04:06:50.096Z,7.37
2022-09-30T04:09:16.618Z,7.38
2022-09-30T04:11:43.151Z,7.37
2022-09-30T04:14:09.711Z,7.39
2022-09-30T04:16:36.228Z,7.38
2022-09-30T04:19:02.874Z,7.38
2022-09-30T04:21:29.433Z,7.35
2022-09-30T04:23:56.418Z,7.35
2022-09-30T04:26:23.036Z,7.33
2022-09-30T04:28:49.593Z,7.30
2022-09-30T04:31:20.700Z,7.31
2022-09-30T04:33:47.320Z,7.31
2022-09-30T04:36:13.674Z,7.29
2022-09-30T04:38:40.125Z,7.29
2022-09-30T04:41:07.360Z,7.27
2022-09-30T04:43:34.694Z,7.26
2022-09-30T04:46:01.629Z,7.26
2022-09-30T04:48:30.270Z,7.25
2022-09-30T04:50:57.904Z,7.26
2022-09-30T04:53:24.304Z,7.28
2022-09-30T04:55:50.844Z,7.30
2022-09-30T04:58:17.389Z,7.32
2022-09-30T05:00:43.774Z,7.30
2022-09-30T05:03:11.046Z,7.31
2022-09-30T05:05:37.519Z,7.31
2022-09-30T05:08:04.668Z,7.32
2022-09-30T05:10:31.195Z,7.34
2022-09-30T05:12:58.235Z,7.33
2022-09-30T05:15:25.077Z,7.31
2022-09-30T05:17:52.378Z,7.30
2022-09-30T05:20:21.269Z,7.29
2022-09-30T05:22:53.213Z,7.29
2022-09-30T05:25:19.613Z,7.25
2022-09-30T05:27:48.946Z,7.23
2022-09-30T05:30:15.429Z,7.20
2022-09-30T05:32:41.821Z,7.18
2022-09-30T05:35:09.272Z,7.16
2022-09-30T05:37:35.608Z,7.15
2022-09-30T05:40:02.120Z,7.17
2022-09-30T05:42:28.506Z,7.16
2022-09-30T05:44:54.909Z,7.16
2022-09-30T05:47:21.311Z,7.13
2022-09-30T05:49:47.748Z,7.10
2022-09-30T05:52:14.931Z,7.05
2022-09-30T05:54:41.353Z,7.03
2022-09-30T05:57:08.254Z,7.03
2022-09-30T05:59:34.635Z,7.06
2022-09-30T06:02:01.473Z,7.12
2022-09-30T06:04:28.016Z,7.18
2022-09-30T06:06:54.396Z,7.23
2022-09-30T06:09:21.032Z,7.29
2022-09-30T06:11:47.944Z,7.32
2022-09-30T06:14:14.396Z,7.36
2022-09-30T06:16:40.970Z,7.43
2022-09-30T06:19:07.409Z,7.46
2022-09-30T06:21:33.841Z,7.50
2022-09-30T06:24:00.639Z,7.51
2022-09-30T06:26:27.774Z,7.53
2022-09-30T06:28:54.730Z,7.56
2022-09-30T06:31:21.558Z,7.61
2022-09-30T06:33:48.281Z,7.63
2022-09-30T06:36:15.147Z,7.66
2022-09-30T06:38:41.598Z,7.70
2022-09-30T06:41:08.799Z,7.75
2022-09-30T06:43:43.464Z,7.77
2022-09-30T06:46:21.991Z,7.80
2022-09-30T06:49:08.518Z,7.83
2022-09-30T06:51:37.445Z,7.85
2022-09-30T06:54:03.893Z,7.88
2022-09-30T06:56:31.462Z,7.90
2022-09-30T06:58:57.922Z,7.94
2022-09-30T07:01:24.763Z,8.00
2022-09-30T07:03:57.892Z,8.02
2022-09-30T07:06:26.323Z,8.06
2022-09-30T07:08:54.093Z,8.08
2022-09-30T07:11:20.895Z,8.13
2022-09-30T07:13:48.662Z,8.16
2022-09-30T07:16:17.495Z,8.20
2022-09-30T07:18:47.674Z,8.23
2022-09-30T07:21:16.211Z,8.30
2022-09-30T07:23:47.895Z,8.35
2022-09-30T07:26:20.037Z,8.39
2022-09-30T07:28:47.607Z,8.35
2022-09-30T07:31:38.279Z,8.40
2022-09-30T07:34:08.836Z,8.43
2022-09-30T07:36:38.173Z,8.40
2022-09-30T07:39:07.542Z,8.28
2022-09-30T07:41:37.557Z,8.36
2022-09-30T07:44:06.358Z,8.32
2022-09-30T07:46:34.938Z,8.25
2022-09-30T07:49:04.025Z,8.22
2022-09-30T07:51:34.213Z,8.17
2022-09-30T07:54:05.762Z,8.11
2022-09-30T07:56:51.163Z,8.07
2022-09-30T07:59:20.939Z,8.12
2022-09-30T08:01:48.293Z,8.19
2022-09-30T08:04:15.912Z,8.23
2022-09-30T08:06:46.107Z,8.22
2022-09-30T08:09:15.755Z,8.30
2022-09-30T08:11:42.989Z,8.36
2022-09-30T08:14:14.895Z,8.42
2022-09-30T08:16:41.867Z,8.46
2022-09-30T08:19:16.166Z,8.60
2022-09-30T08:21:43.606Z,8.65
2022-09-30T08:24:10.976Z,8.67
2022-09-30T08:26:37.898Z,8.72
2022-09-30T08:29:04.463Z,8.81
2022-09-30T08:31:33.188Z,8.84
2022-09-30T08:33:59.956Z,8.89
2022-09-30T08:36:27.648Z,8.95
2022-09-30T08:38:54.471Z,8.95
2022-09-30T08:41:38.932Z,8.93
2022-09-30T08:44:24.905Z,8.88
2022-09-30T08:47:09.910Z,8.82
2022-09-30T08:49:58.117Z,8.92
2022-09-30T08:52:47.789Z,8.85
2022-09-30T08:55:24.470Z,8.90
2022-09-30T08:57:52.849Z,9.05
2022-09-30T09:00:20.951Z,9.10
2022-09-30T09:02:59.446Z,9.13
2022-09-30T09:05:32.017Z,9.23
2022-09-30T09:08:08.671Z,9.24
2022-09-30T09:11:00.082Z,9.24
2022-09-30T09:13:58.616Z,9.37
2022-09-30T09:16:48.928Z,9.37
2022-09-30T09:19:25.090Z,9.48
2022-09-30T09:21:57.142Z,9.48
2022-09-30T09:24:25.958Z,9.48
2022-09-30T09:26:54.585Z,9.58
2022-09-30T09:29:45.369Z,9.66
2022-09-30T09:32:18.400Z,9.79
2022-09-30T09:34:46.197Z,9.96
2022-09-30T09:37:17.285Z,10.14
2022-09-30T09:40:03.825Z,10.27
2022-09-30T09:42:49.847Z,10.43
2022-09-30T09:45:32.753Z,10.50
2022-09-30T09:48:00.015Z,10.66
2022-09-30T09:50:42.940Z,10.83
2022-09-30T09:53:29.821Z,11.13
2022-09-30T09:56:00.348Z,11.47
2022-09-30T09:58:26.915Z,11.68
2022-09-30T10:00:53.395Z,11.95
2022-09-30T10:03:23.918Z,12.13
2022-09-30T10:06:10.342Z,12.54
2022-09-30T10:08:39.643Z,12.61
2022-09-30T10:11:22.734Z,12.75
2022-09-30T10:13:51.085Z,12.92
2022-09-30T10:16:27.641Z,13.28
2022-09-30T10:18:54.285Z,13.39
2022-09-30T10:21:26.396Z,13.69
2022-09-30T10:23:52.799Z,14.05
2022-09-30T10:26:22.650Z,14.13
2022-09-30T10:28:51.890Z,14.32
2022-09-30T10:31:28.399Z,14.43
2022-09-30T10:34:28.804Z,14.54
2022-09-30T10:36:57.222Z,14.73
2022-09-30T10:39:35.727Z,14.76
2022-09-30T10:42:23.634Z,14.84
2022-09-30T10:44:55.166Z,15.00
2022-09-30T10:47:26.277Z,15.15
2022-09-30T10:49:56.280Z,15.51
2022-09-30T10:52:26.417Z,15.73
2022-09-30T10:55:00.821Z,15.75
2022-09-30T10:57:29.835Z,15.91
2022-09-30T11:00:00.861Z,15.90
2022-09-30T11:02:48.246Z,15.86
2022-09-30T11:05:24.352Z,16.10
2022-09-30T11:08:14.950Z,16.25
2022-09-30T11:10:47.262Z,16.48
2022-09-30T11:13:35.463Z,16.51
2022-09-30T11:16:33.032Z,16.74
2022-09-30T11:19:08.053Z,16.85
2022-09-30T11:21:46.493Z,17.06
2022-09-30T11:24:12.909Z,17.30
2022-09-30T11:27:16.306Z,17.65
2022-09-30T11:29:48.772Z,17.85
2022-09-30T11:32:40.608Z,17.85
2022-09-30T11:35:42.064Z,17.86
2022-09-30T11:38:36.688Z,17.80
2022-09-30T11:41:29.305Z,18.01
2022-09-30T11:44:03.357Z,18.21
2022-09-30T11:46:53.413Z,18.32
2022-09-30T11:49:36.450Z,18.40
2022-09-30T11:52:27.842Z,18.60
2022-09-30T11:55:15.301Z,18.76
2022-09-30T11:57:57.606Z,18.87
2022-09-30T12:00:24.134Z,19.00
2022-09-30T12:02:56.340Z,19.27
2022-09-30T12:05:26.239Z,19.35
2022-09-30T12:07:59.951Z,19.41
2022-09-30T12:10:34.144Z,19.43
2022-09-30T12:13:08.859Z,19.69
2022-09-30T12:15:35.617Z,19.79
2022-09-30T12:18:07.570Z,19.81
2022-09-30T12:20:39.538Z,19.92
2022-09-30T12:23:13.736Z,20.18
2022-09-30T12:25:46.151Z,20.33
2022-09-30T12:28:57.090Z,20.33
2022-09-30T12:31:44.455Z,20.42
2022-09-30T12:34:35.938Z,20.48
2022-09-30T12:37:44.154Z,20.70
2022-09-30T12:43:02.030Z,20.65
2022-09-30T12:45:49.503Z,20.50
2022-09-30T12:48:20.860Z,20.20
2022-09-30T12:50:57.783Z,20.00
2022-09-30T12:53:36.779Z,19.64
2022-09-30T12:56:14.197Z,19.48
2022-09-30T12:58:44.738Z,19.20
2022-09-30T13:01:30.971Z,19.03
2022-09-30T13:03:59.106Z,19.02
2022-09-30T13:06:44.833Z,19.21
2022-09-30T13:09:11.164Z,19.39
2022-09-30T13:11:46.348Z,19.35
2022-09-30T13:14:26.295Z,19.27
2022-09-30T13:17:23.674Z,19.22
2022-09-30T13:19:52.610Z,19.14
2022-09-30T13:22:19.207Z,19.05
2022-09-30T13:25:00.660Z,19.27
2022-09-30T13:27:34.361Z,19.75
2022-09-30T13:30:01.838Z,20.01
2022-09-30T13:32:37.924Z,20.33
2022-09-30T13:35:29.937Z,20.66
2022-09-30T13:38:11.768Z,20.97
2022-09-30T13:41:01.150Z,21.15
2022-09-30T13:44:03.112Z,21.30
2022-09-30T13:46:43.569Z,21.55
2022-09-30T13:49:36.071Z,21.52
2022-09-30T13:52:06.379Z,21.69
2022-09-30T13:54:40.112Z,21.78
2022-09-30T13:57:14.713Z,21.70
2022-09-30T13:59:53.249Z,21.75
2022-09-30T14:02:38.394Z,21.56
2022-09-30T14:05:23.457Z,21.45
2022-09-30T14:08:31.830Z,21.52
2022-09-30T14:11:11.943Z,21.68
2022-09-30T14:14:05.271Z,21.85
2022-09-30T14:17:12.889Z,22.03
2022-09-30T14:20:09.145Z,21.68
2022-09-30T14:22:36.979Z,21.34
2022-09-30T14:25:04.750Z,21.25
2022-09-30T14:27:55.166Z,21.40
2022-09-30T14:30:24.149Z,21.60
2022-09-30T14:32:56.722Z,21.48
2022-09-30T14:35:28.194Z,21.32
2022-09-30T14:38:01.395Z,21.29
2022-09-30T14:40:33.558Z,21.61
2022-09-30T14:43:04.826Z,21.82
2022-09-30T14:45:34.510Z,22.03
2022-09-30T14:48:18.603Z,22.36
2022-09-30T14:50:50.661Z,22.48
2022-09-30T14:53:39.236Z,22.33
2022-09-30T14:56:23.205Z,22.44
2022-09-30T14:58:52.902Z,22.62
2022-09-30T15:01:23.222Z,22.27
2022-09-30T15:03:56.810Z,22.09
2022-09-30T15:06:32.280Z,21.82
2022-09-30T15:09:17.936Z,22.18
2022-09-30T15:11:44.719Z,22.30
2022-09-30T15:14:18.022Z,22.40
2022-09-30T15:16:53.126Z,22.41
2022-09-30T15:19:26.340Z,22.38
2022-09-30T15:22:02.259Z,22.27
2022-09-30T15:24:32.616Z,22.18
2022-09-30T15:27:01.349Z,22.03
2022-09-30T15:29:28.264Z,22.19
2022-09-30T15:32:18.004Z,21.64
2022-09-30T15:34:46.346Z,21.36
2022-09-30T15:37:22.855Z,21.04
2022-09-30T15:40:08.905Z,21.06
2022-09-30T15:42:38.125Z,20.72
2022-09-30T15:45:17.150Z,20.52
2022-09-30T15:47:58.395Z,20.54
2022-09-30T15:50:45.866Z,20.30
2022-09-30T15:53:46.702Z,19.98
2022-09-30T15:56:46.195Z,19.73
2022-09-30T15:59:14.655Z,19.67
2022-09-30T16:01:44.976Z,19.56
2022-09-30T16:04:17.655Z,19.43
2022-09-30T16:06:57.339Z,19.46
2022-09-30T16:09:30.533Z,19.40
2022-09-30T16:12:33.936Z,19.43
2022-09-30T16:15:15.009Z,19.40
2022-09-30T16:17:47.267Z,19.15
2022-09-30T16:20:13.883Z,19.21
2022-09-30T16:22:40.221Z,19.24
2022-09-30T16:25:20.001Z,19.25
2022-09-30T16:27:46.711Z,19.19
2022-09-30T16:30:17.913Z,19.10
2022-09-30T16:32:47.965Z,19.02
2022-09-30T16:35:23.501Z,18.98
2022-09-30T16:37:51.483Z,18.90
2022-09-30T16:40:25.380Z,18.78
2022-09-30T16:42:58.481Z,18.70
2022-09-30T16:45:27.593Z,18.63
2022-09-30T16:47:56.829Z,18.51
2022-09-30T16:50:31.936Z,18.37
2022-09-30T16:52:58.327Z,18.17
2022-09-30T16:55:26.325Z,18.04
2022-09-30T16:57:55.400Z,17.91
2022-09-30T17:00:21.889Z,17.82
2022-09-30T17:02:49.183Z,17.72
2022-09-30T17:05:19.468Z,17.62
2022-09-30T17:07:47.987Z,17.50
2022-09-30T17:10:19.956Z,17.39
2022-09-30T17:12:46.368Z,17.30
2022-09-30T17:15:12.928Z,17.22
2022-09-30T17:17:39.335Z,17.12
2022-09-30T17:20:06.385Z,16.99
2022-09-30T17:22:32.763Z,16.83
2022-09-30T17:25:00.388Z,16.65
2022-09-30T17:27:26.802Z,16.41
2022-09-30T17:29:53.184Z,16.21
2022-09-30T17:32:19.569Z,15.98
2022-09-30T17:34:45.932Z,15.76
2022-09-30T17:37:14.578Z,15.55
2022-09-30T17:39:41.217Z,15.28
2022-09-30T17:42:31.934Z,15.09
2022-09-30T17:44:58.497Z,14.84
2022-09-30T17:47:26.743Z,14.63
2022-09-30T17:49:53.496Z,14.45
2022-09-30T17:52:21.128Z,14.26
2022-09-30T17:54:52.178Z,14.06
2022-09-30T17:57:19.975Z,13.86
2022-09-30T17:59:46.743Z,13.65
2022-09-30T18:02:15.752Z,13.52
2022-09-30T18:04:42.246Z,13.41
2022-09-30T18:07:10.180Z,13.29
2022-09-30T18:09:37.945Z,13.18
2022-09-30T18:12:05.179Z,13.03
2022-09-30T18:14:35.947Z,12.93
2022-09-30T18:17:04.219Z,12.83
2022-09-30T18:19:31.418Z,12.71
2022-09-30T18:21:57.910Z,12.60
2022-09-30T18:24:44.993Z,12.55
2022-09-30T18:27:11.829Z,12.40
2022-09-30T18:29:38.630Z,12.34
2022-09-30T18:32:05.794Z,12.25
2022-09-30T18:34:32.603Z,12.20
2022-09-30T18:37:03.949Z,12.13
2022-09-30T18:39:31.504Z,12.10
2022-09-30T18:41:57.947Z,12.01
2022-09-30T18:44:25.647Z,11.98
2022-09-30T18:46:55.468Z,11.93
2022-09-30T18:49:22.278Z,11.86
2022-09-30T18:51:48.765Z,11.79
2022-09-30T18:54:16.201Z,11.72
2022-09-30T18:56:44.161Z,11.68
2022-09-30T18:59:17.121Z,11.60
2022-09-30T19:01:47.028Z,11.55
2022-09-30T19:04:13.974Z,11.50
2022-09-30T19:06:43.109Z,11.48
2022-09-30T19:09:09.676Z,11.41
2022-09-30T19:11:39.109Z,11.36
2022-09-30T19:14:06.857Z,11.32
2022-09-30T19:16:38.526Z,11.29
2022-09-30T19:19:08.050Z,11.26
2022-09-30T19:21:36.227Z,11.23
2022-09-30T19:24:04.773Z,11.20
2022-09-30T19:26:33.387Z,11.11
2022-09-30T19:28:59.839Z,11.05
2022-09-30T19:31:27.056Z,11.02
2022-09-30T19:33:56.842Z,10.98
2022-09-30T19:36:24.679Z,10.94
2022-09-30T19:38:55.971Z,10.93
2022-09-30T19:41:32.381Z,10.95
2022-09-30T19:44:01.912Z,10.94
2022-09-30T19:46:29.507Z,10.95
2022-09-30T19:48:56.291Z,10.95
2022-09-30T19:51:22.809Z,10.96
2022-09-30T19:54:00.070Z,10.96
2022-09-30T19:56:30.892Z,10.94
2022-09-30T19:59:00.032Z,10.92
2022-09-30T20:01:28.456Z,10.87
2022-09-30T20:03:56.567Z,10.86
2022-09-30T20:06:23.459Z,10.87
2022-09-30T20:08:57.424Z,10.84
2022-09-30T20:11:25.149Z,10.81
2022-09-30T20:14:14.028Z,10.79
2022-09-30T20:16:41.695Z,10.75
2022-09-30T20:19:08.217Z,10.74
2022-09-30T20:21:35.187Z,10.70
2022-09-30T20:24:02.395Z,10.67
2022-09-30T20:26:29.006Z,10.64
2022-09-30T20:29:00.484Z,10.64
2022-09-30T20:31:27.512Z,10.62
2022-09-30T20:33:59.451Z,10.62
2022-09-30T20:36:28.280Z,10.61
2022-09-30T20:38:59.849Z,10.58
2022-09-30T20:41:27.129Z,10.54
2022-09-30T20:43:54.049Z,10.53
2022-09-30T20:46:22.397Z,10.50
2022-09-30T20:48:49.453Z,10.47
2022-09-30T20:51:18.716Z,10.48
2022-09-30T20:53:50.379Z,10.47
2022-09-30T20:56:17.610Z,10.45
2022-09-30T20:58:44.132Z,10.44
2022-09-30T21:01:14.041Z,10.42
2022-09-30T21:03:41.578Z,10.37
2022-09-30T21:06:12.324Z,10.35
2022-09-30T21:08:40.285Z,10.36
2022-09-30T21:11:07.477Z,10.36
2022-09-30T21:13:35.266Z,10.33
2022-09-30T21:16:04.606Z,10.33
2022-09-30T21:18:31.601Z,10.31
2022-09-30T21:20:59.835Z,10.30
2022-09-30T21:23:27.370Z,10.26
2022-09-30T21:26:02.948Z,10.24
2022-09-30T21:28:30.597Z,10.22
2022-09-30T21:30:57.124Z,10.17
2022-09-30T21:33:24.705Z,10.16
2022-09-30T21:36:05.985Z,10.15
2022-09-30T21:38:33.737Z,10.16
2022-09-30T21:41:02.075Z,10.17
2022-09-30T21:43:30.382Z,10.19
2022-09-30T21:46:01.538Z,10.19
2022-09-30T21:48:28.834Z,10.20
2022-09-30T21:50:56.274Z,10.22
2022-09-30T21:53:27.173Z,10.22
2022-09-30T21:55:54.934Z,10.24
2022-09-30T21:58:25.548Z,10.27
2022-09-30T22:00:56.670Z,10.27
2022-09-30T22:03:23.533Z,10.27
2022-09-30T22:05:53.928Z,10.31
2022-09-30T22:08:21.252Z,10.30
2022-09-30T22:10:48.954Z,10.30
2022-09-30T22:13:15.976Z,10.29
2022-09-30T22:15:44.692Z,10.29
2022-09-30T22:18:19.484Z,10.27
2022-09-30T22:20:47.794Z,10.27
2022-09-30T22:23:15.058Z,10.30
2022-09-30T22:25:41.668Z,10.32
2022-09-30T22:28:08.174Z,10.34
2022-09-30T22:30:35.271Z,10.35
2022-09-30T22:33:20.632Z,10.37
2022-09-30T22:36:05.526Z,10.37
2022-09-30T22:38:31.923Z,10.40
2022-09-30T22:40:59.601Z,10.43
2022-09-30T22:43:27.118Z,10.48
2022-09-30T22:46:04.782Z,10.51
2022-09-30T22:48:31.848Z,10.53
2022-09-30T22:50:58.997Z,10.54
2022-09-30T22:53:26.839Z,10.58
2022-09-30T22:55:53.876Z,10.59
2022-09-30T22:58:21.439Z,10.64
2022-09-30T23:00:55.736Z,10.67
2022-09-30T23:03:23.186Z,10.72
2022-09-30T23:05:50.127Z,10.75
2022-09-30T23:08:16.609Z,10.81
2022-09-30T23:10:50.613Z,10.89
2022-09-30T23:13:20.202Z,10.93
2022-09-30T23:15:47.695Z,11.00
2022-09-30T23:18:16.958Z,11.04
2022-09-30T23:20:52.973Z,11.07
2022-09-30T23:23:19.349Z,11.06
2022-09-30T23:25:45.774Z,11.09
2022-09-30T23:28:12.190Z,11.12
2022-09-30T23:30:38.572Z,11.15
2022-09-30T23:33:05.179Z,11.18
2022-09-30T23:35:31.553Z,11.20
2022-09-30T23:37:57.959Z,11.24
2022-09-30T23:40:24.338Z,11.26
2022-09-30T23:42:51.292Z,11.30
2022-09-30T23:45:17.655Z,11.33
2022-09-30T23:47:47.940Z,11.37
2022-09-30T23:50:15.160Z,11.36
2022-09-30T23:52:44.218Z,11.39
2022-09-30T23:55:11.508Z,11.39
2022-09-30T23:57:38.131Z,11.41
